sensor_id;sensor_type;location;lat;lon;timestamp;temperature;humidity
45008;DHT22;30743;52.008;5.644;2023-05-07T00:01:48;21.10;99.90
45008;DHT22;30743;52.008;5.644;2023-05-07T00:04:13;21.10;99.90
45008;DHT22;30743;52.008;5.644;2023-05-07T00:06:39;21.00;99.90
45008;DHT22;30743;52.008;5.644;2023-05-07T00:09:05;21.00;99.90
45008;DHT22;30743;52.008;5.644;2023-05-07T00:11:31;21.10;99.90
45008;DHT22;30743;52.008;5.644;2023-05-07T00:13:57;21.10;99.90
45008;DHT22;30743;52.008;5.644;2023-05-07T00:16:22;21.10;99.90
45008;DHT22;30743;52.008;5.644;2023-05-07T00:18:48;21.20;99.90
45008;DHT22;30743;52.008;5.644;2023-05-07T00:21:14;21.10;99.90
45008;DHT22;30743;52.008;5.644;2023-05-07T00:23:39;21.20;99.90
45008;DHT22;30743;52.008;5.644;2023-05-07T00:26:05;21.20;99.90
45008;DHT22;30743;52.008;5.644;2023-05-07T00:28:30;21.10;99.90
45008;DHT22;30743;52.008;5.644;2023-05-07T00:30:56;21.20;99.90
45008;DHT22;30743;52.008;5.644;2023-05-07T00:33:21;21.20;99.90
45008;DHT22;30743;52.008;5.644;2023-05-07T00:35:47;21.10;99.90
45008;DHT22;30743;52.008;5.644;2023-05-07T00:38:13;21.10;99.90
45008;DHT22;30743;52.008;5.644;2023-05-07T00:40:39;21.20;99.90
45008;DHT22;30743;52.008;5.644;2023-05-07T00:43:05;21.10;99.90
45008;DHT22;30743;52.008;5.644;2023-05-07T00:45:31;21.10;99.90
45008;DHT22;30743;52.008;5.644;2023-05-07T00:47:59;21.10;99.90
45008;DHT22;30743;52.008;5.644;2023-05-07T00:50:28;21.00;99.90
45008;DHT22;30743;52.008;5.644;2023-05-07T00:52:55;21.00;99.90
45008;DHT22;30743;52.008;5.644;2023-05-07T00:55:21;21.00;99.90
45008;DHT22;30743;52.008;5.644;2023-05-07T00:57:47;20.90;99.90
45008;DHT22;30743;52.008;5.644;2023-05-07T01:00:14;20.90;99.90
45008;DHT22;30743;52.008;5.644;2023-05-07T01:02:39;20.80;99.90
45008;DHT22;30743;52.008;5.644;2023-05-07T01:05:07;20.80;99.90
45008;DHT22;30743;52.008;5.644;2023-05-07T01:07:34;20.80;99.90
45008;DHT22;30743;52.008;5.644;2023-05-07T01:10:00;20.80;99.90
45008;DHT22;30743;52.008;5.644;2023-05-07T01:12:27;20.80;99.90
45008;DHT22;30743;52.008;5.644;2023-05-07T01:14:53;20.70;99.90
45008;DHT22;30743;52.008;5.644;2023-05-07T01:17:19;20.70;99.90
45008;DHT22;30743;52.008;5.644;2023-05-07T01:19:45;20.80;99.90
45008;DHT22;30743;52.008;5.644;2023-05-07T01:22:11;20.80;99.90
45008;DHT22;30743;52.008;5.644;2023-05-07T01:24:37;20.80;99.90
45008;DHT22;30743;52.008;5.644;2023-05-07T01:27:03;20.80;99.90
45008;DHT22;30743;52.008;5.644;2023-05-07T01:29:29;20.80;99.90
45008;DHT22;30743;52.008;5.644;2023-05-07T01:32:00;20.80;99.90
45008;DHT22;30743;52.008;5.644;2023-05-07T01:34:28;20.90;99.90
45008;DHT22;30743;52.008;5.644;2023-05-07T01:36:54;20.90;99.90
45008;DHT22;30743;52.008;5.644;2023-05-07T01:39:23;20.90;99.90
45008;DHT22;30743;52.008;5.644;2023-05-07T01:41:50;20.90;99.90
45008;DHT22;30743;52.008;5.644;2023-05-07T01:44:16;20.90;99.90
45008;DHT22;30743;52.008;5.644;2023-05-07T01:46:43;21.00;99.90
45008;DHT22;30743;52.008;5.644;2023-05-07T01:49:09;21.00;99.90
45008;DHT22;30743;52.008;5.644;2023-05-07T01:51:35;21.00;99.90
45008;DHT22;30743;52.008;5.644;2023-05-07T01:54:01;21.00;99.90
45008;DHT22;30743;52.008;5.644;2023-05-07T01:56:26;21.00;99.90
45008;DHT22;30743;52.008;5.644;2023-05-07T01:58:52;21.00;99.90
45008;DHT22;30743;52.008;5.644;2023-05-07T02:01:18;21.00;99.90
45008;DHT22;30743;52.008;5.644;2023-05-07T02:03:44;21.00;99.90
45008;DHT22;30743;52.008;5.644;2023-05-07T02:06:09;21.00;99.90
45008;DHT22;30743;52.008;5.644;2023-05-07T02:08:35;21.00;99.90
45008;DHT22;30743;52.008;5.644;2023-05-07T02:11:01;21.00;99.90
45008;DHT22;30743;52.008;5.644;2023-05-07T02:13:32;21.00;99.90
45008;DHT22;30743;52.008;5.644;2023-05-07T02:15:58;21.00;99.90
45008;DHT22;30743;52.008;5.644;2023-05-07T02:18:24;21.00;99.90
45008;DHT22;30743;52.008;5.644;2023-05-07T02:20:50;21.00;99.90
45008;DHT22;30743;52.008;5.644;2023-05-07T02:23:15;21.00;99.90
45008;DHT22;30743;52.008;5.644;2023-05-07T02:25:40;21.00;99.90
45008;DHT22;30743;52.008;5.644;2023-05-07T02:28:06;21.00;99.90
45008;DHT22;30743;52.008;5.644;2023-05-07T02:30:32;21.00;99.90
45008;DHT22;30743;52.008;5.644;2023-05-07T02:32:58;20.90;99.90
45008;DHT22;30743;52.008;5.644;2023-05-07T02:35:24;20.90;99.90
45008;DHT22;30743;52.008;5.644;2023-05-07T02:37:50;20.80;99.90
45008;DHT22;30743;52.008;5.644;2023-05-07T02:40:16;20.80;99.90
45008;DHT22;30743;52.008;5.644;2023-05-07T02:42:41;20.80;99.90
45008;DHT22;30743;52.008;5.644;2023-05-07T02:45:07;20.70;99.90
45008;DHT22;30743;52.008;5.644;2023-05-07T02:47:33;20.70;99.90
45008;DHT22;30743;52.008;5.644;2023-05-07T02:49:58;20.70;99.90
45008;DHT22;30743;52.008;5.644;2023-05-07T02:52:24;20.70;99.90
45008;DHT22;30743;52.008;5.644;2023-05-07T02:54:49;20.80;99.90
45008;DHT22;30743;52.008;5.644;2023-05-07T02:57:15;20.80;99.90
45008;DHT22;30743;52.008;5.644;2023-05-07T02:59:42;20.80;99.90
45008;DHT22;30743;52.008;5.644;2023-05-07T03:02:07;20.80;99.90
45008;DHT22;30743;52.008;5.644;2023-05-07T03:04:33;20.80;99.90
45008;DHT22;30743;52.008;5.644;2023-05-07T03:06:58;20.90;99.90
45008;DHT22;30743;52.008;5.644;2023-05-07T03:09:24;20.80;99.90
45008;DHT22;30743;52.008;5.644;2023-05-07T03:11:49;20.70;99.90
45008;DHT22;30743;52.008;5.644;2023-05-07T03:14:15;20.60;99.90
45008;DHT22;30743;52.008;5.644;2023-05-07T03:16:40;20.70;99.90
45008;DHT22;30743;52.008;5.644;2023-05-07T03:19:06;20.70;99.90
45008;DHT22;30743;52.008;5.644;2023-05-07T03:21:31;20.80;99.90
45008;DHT22;30743;52.008;5.644;2023-05-07T03:23:59;20.80;99.90
45008;DHT22;30743;52.008;5.644;2023-05-07T03:26:25;20.70;99.90
45008;DHT22;30743;52.008;5.644;2023-05-07T03:28:51;20.60;99.90
45008;DHT22;30743;52.008;5.644;2023-05-07T03:31:17;20.60;99.90
45008;DHT22;30743;52.008;5.644;2023-05-07T03:33:56;20.60;99.90
45008;DHT22;30743;52.008;5.644;2023-05-07T03:36:23;20.60;99.90
45008;DHT22;30743;52.008;5.644;2023-05-07T03:38:49;20.60;99.90
45008;DHT22;30743;52.008;5.644;2023-05-07T03:41:15;20.60;99.90
45008;DHT22;30743;52.008;5.644;2023-05-07T03:43:41;20.60;99.90
45008;DHT22;30743;52.008;5.644;2023-05-07T03:46:06;20.60;99.90
45008;DHT22;30743;52.008;5.644;2023-05-07T03:48:32;20.70;99.90
45008;DHT22;30743;52.008;5.644;2023-05-07T03:50:58;20.70;99.90
45008;DHT22;30743;52.008;5.644;2023-05-07T03:53:23;20.60;99.90
45008;DHT22;30743;52.008;5.644;2023-05-07T03:55:49;20.60;99.90
45008;DHT22;30743;52.008;5.644;2023-05-07T03:58:15;20.60;99.90
45008;DHT22;30743;52.008;5.644;2023-05-07T04:00:41;20.60;99.90
45008;DHT22;30743;52.008;5.644;2023-05-07T04:03:06;20.60;99.90
45008;DHT22;30743;52.008;5.644;2023-05-07T04:05:32;20.70;99.90
45008;DHT22;30743;52.008;5.644;2023-05-07T04:07:58;20.70;99.90
45008;DHT22;30743;52.008;5.644;2023-05-07T04:10:24;20.60;99.90
45008;DHT22;30743;52.008;5.644;2023-05-07T04:12:49;20.70;99.90
45008;DHT22;30743;52.008;5.644;2023-05-07T04:15:15;20.70;99.90
45008;DHT22;30743;52.008;5.644;2023-05-07T04:17:40;20.70;99.90
45008;DHT22;30743;52.008;5.644;2023-05-07T04:20:09;20.70;99.90
45008;DHT22;30743;52.008;5.644;2023-05-07T04:22:36;20.70;99.90
45008;DHT22;30743;52.008;5.644;2023-05-07T04:25:01;20.70;99.90
45008;DHT22;30743;52.008;5.644;2023-05-07T04:27:27;20.70;99.90
45008;DHT22;30743;52.008;5.644;2023-05-07T04:29:53;20.80;99.90
45008;DHT22;30743;52.008;5.644;2023-05-07T04:32:21;20.80;99.90
45008;DHT22;30743;52.008;5.644;2023-05-07T04:34:46;20.80;99.90
45008;DHT22;30743;52.008;5.644;2023-05-07T04:37:12;20.80;99.90
45008;DHT22;30743;52.008;5.644;2023-05-07T04:39:37;20.70;99.90
45008;DHT22;30743;52.008;5.644;2023-05-07T04:42:03;20.70;99.90
45008;DHT22;30743;52.008;5.644;2023-05-07T04:44:28;20.60;99.90
45008;DHT22;30743;52.008;5.644;2023-05-07T04:46:56;20.50;99.90
45008;DHT22;30743;52.008;5.644;2023-05-07T04:49:22;20.40;99.90
45008;DHT22;30743;52.008;5.644;2023-05-07T04:51:47;20.50;99.90
45008;DHT22;30743;52.008;5.644;2023-05-07T04:54:13;20.40;99.90
45008;DHT22;30743;52.008;5.644;2023-05-07T04:56:38;20.50;99.90
45008;DHT22;30743;52.008;5.644;2023-05-07T04:59:04;20.50;99.90
45008;DHT22;30743;52.008;5.644;2023-05-07T05:01:29;20.50;99.90
45008;DHT22;30743;52.008;5.644;2023-05-07T05:03:55;20.50;99.90
45008;DHT22;30743;52.008;5.644;2023-05-07T05:06:21;20.50;99.90
45008;DHT22;30743;52.008;5.644;2023-05-07T05:08:46;20.50;99.90
45008;DHT22;30743;52.008;5.644;2023-05-07T05:11:12;20.40;99.90
45008;DHT22;30743;52.008;5.644;2023-05-07T05:13:37;20.40;99.90
45008;DHT22;30743;52.008;5.644;2023-05-07T05:16:03;20.40;99.90
45008;DHT22;30743;52.008;5.644;2023-05-07T05:18:28;20.30;99.90
45008;DHT22;30743;52.008;5.644;2023-05-07T05:20:54;20.30;99.90
45008;DHT22;30743;52.008;5.644;2023-05-07T05:23:19;20.20;99.90
45008;DHT22;30743;52.008;5.644;2023-05-07T05:25:45;20.40;99.90
45008;DHT22;30743;52.008;5.644;2023-05-07T05:28:11;20.30;99.90
45008;DHT22;30743;52.008;5.644;2023-05-07T05:30:36;20.50;99.90
45008;DHT22;30743;52.008;5.644;2023-05-07T05:33:02;20.60;99.90
45008;DHT22;30743;52.008;5.644;2023-05-07T05:35:27;20.60;99.90
45008;DHT22;30743;52.008;5.644;2023-05-07T05:37:53;20.60;99.90
45008;DHT22;30743;52.008;5.644;2023-05-07T05:40:18;20.60;99.90
45008;DHT22;30743;52.008;5.644;2023-05-07T05:42:44;20.70;99.90
45008;DHT22;30743;52.008;5.644;2023-05-07T05:45:10;20.90;99.90
45008;DHT22;30743;52.008;5.644;2023-05-07T05:47:35;20.90;99.90
45008;DHT22;30743;52.008;5.644;2023-05-07T05:50:01;20.90;99.90
45008;DHT22;30743;52.008;5.644;2023-05-07T05:52:26;21.00;99.90
45008;DHT22;30743;52.008;5.644;2023-05-07T05:54:53;21.00;99.90
45008;DHT22;30743;52.008;5.644;2023-05-07T05:57:19;21.00;99.90
45008;DHT22;30743;52.008;5.644;2023-05-07T05:59:44;20.90;99.90
45008;DHT22;30743;52.008;5.644;2023-05-07T06:02:10;21.00;99.90
45008;DHT22;30743;52.008;5.644;2023-05-07T06:04:36;21.00;99.90
45008;DHT22;30743;52.008;5.644;2023-05-07T06:07:01;21.10;99.90
45008;DHT22;30743;52.008;5.644;2023-05-07T06:09:27;21.10;99.90
45008;DHT22;30743;52.008;5.644;2023-05-07T06:11:52;21.10;99.90
45008;DHT22;30743;52.008;5.644;2023-05-07T06:14:18;21.20;99.90
45008;DHT22;30743;52.008;5.644;2023-05-07T06:16:44;21.20;99.90
45008;DHT22;30743;52.008;5.644;2023-05-07T06:19:09;21.30;99.90
45008;DHT22;30743;52.008;5.644;2023-05-07T06:21:35;21.30;99.90
45008;DHT22;30743;52.008;5.644;2023-05-07T06:24:00;21.30;99.90
45008;DHT22;30743;52.008;5.644;2023-05-07T06:26:26;21.40;99.90
45008;DHT22;30743;52.008;5.644;2023-05-07T06:28:51;21.30;99.90
45008;DHT22;30743;52.008;5.644;2023-05-07T06:31:20;21.40;99.90
45008;DHT22;30743;52.008;5.644;2023-05-07T06:33:46;21.40;99.90
45008;DHT22;30743;52.008;5.644;2023-05-07T06:36:12;21.40;99.90
45008;DHT22;30743;52.008;5.644;2023-05-07T06:38:37;21.30;99.90
45008;DHT22;30743;52.008;5.644;2023-05-07T06:41:03;21.10;99.90
45008;DHT22;30743;52.008;5.644;2023-05-07T06:43:28;21.10;99.90
45008;DHT22;30743;52.008;5.644;2023-05-07T06:45:54;21.20;99.90
45008;DHT22;30743;52.008;5.644;2023-05-07T06:48:19;21.30;99.90
45008;DHT22;30743;52.008;5.644;2023-05-07T06:50:45;21.30;99.90
45008;DHT22;30743;52.008;5.644;2023-05-07T06:53:11;21.40;99.90
45008;DHT22;30743;52.008;5.644;2023-05-07T06:55:36;21.50;99.90
45008;DHT22;30743;52.008;5.644;2023-05-07T06:58:03;21.60;99.90
45008;DHT22;30743;52.008;5.644;2023-05-07T07:00:29;21.70;99.90
45008;DHT22;30743;52.008;5.644;2023-05-07T07:02:55;21.70;99.90
45008;DHT22;30743;52.008;5.644;2023-05-07T07:05:20;21.80;99.90
45008;DHT22;30743;52.008;5.644;2023-05-07T07:07:46;21.90;99.90
45008;DHT22;30743;52.008;5.644;2023-05-07T07:10:19;22.00;99.90
45008;DHT22;30743;52.008;5.644;2023-05-07T07:12:45;22.00;99.90
45008;DHT22;30743;52.008;5.644;2023-05-07T07:15:10;22.00;99.90
45008;DHT22;30743;52.008;5.644;2023-05-07T07:17:36;21.80;99.90
45008;DHT22;30743;52.008;5.644;2023-05-07T07:20:02;21.70;99.90
45008;DHT22;30743;52.008;5.644;2023-05-07T07:22:28;21.90;99.90
45008;DHT22;30743;52.008;5.644;2023-05-07T07:24:54;21.50;99.90
45008;DHT22;30743;52.008;5.644;2023-05-07T07:27:19;21.50;99.90
45008;DHT22;30743;52.008;5.644;2023-05-07T07:29:45;21.80;99.90
45008;DHT22;30743;52.008;5.644;2023-05-07T07:32:10;21.80;99.90
45008;DHT22;30743;52.008;5.644;2023-05-07T07:34:36;21.80;99.90
45008;DHT22;30743;52.008;5.644;2023-05-07T07:37:01;21.90;99.90
45008;DHT22;30743;52.008;5.644;2023-05-07T07:39:31;21.70;99.90
45008;DHT22;30743;52.008;5.644;2023-05-07T07:41:56;21.80;99.90
45008;DHT22;30743;52.008;5.644;2023-05-07T07:44:22;21.70;99.90
45008;DHT22;30743;52.008;5.644;2023-05-07T07:46:47;23.20;99.90
45008;DHT22;30743;52.008;5.644;2023-05-07T07:49:13;22.10;99.90
45008;DHT22;30743;52.008;5.644;2023-05-07T07:51:39;22.10;99.90
45008;DHT22;30743;52.008;5.644;2023-05-07T07:54:05;22.10;99.90
45008;DHT22;30743;52.008;5.644;2023-05-07T07:56:32;22.30;99.90
45008;DHT22;30743;52.008;5.644;2023-05-07T07:58:58;22.40;99.90
45008;DHT22;30743;52.008;5.644;2023-05-07T08:01:24;22.40;99.90
45008;DHT22;30743;52.008;5.644;2023-05-07T08:03:50;22.40;99.90
45008;DHT22;30743;52.008;5.644;2023-05-07T08:06:15;22.40;99.90
45008;DHT22;30743;52.008;5.644;2023-05-07T08:08:41;22.50;99.90
45008;DHT22;30743;52.008;5.644;2023-05-07T08:11:06;22.50;99.90
45008;DHT22;30743;52.008;5.644;2023-05-07T08:13:32;22.40;99.90
45008;DHT22;30743;52.008;5.644;2023-05-07T08:15:58;22.20;99.90
45008;DHT22;30743;52.008;5.644;2023-05-07T08:18:23;22.40;99.90
45008;DHT22;30743;52.008;5.644;2023-05-07T08:20:50;22.40;99.90
45008;DHT22;30743;52.008;5.644;2023-05-07T08:23:15;22.60;99.90
45008;DHT22;30743;52.008;5.644;2023-05-07T08:25:41;24.90;99.90
45008;DHT22;30743;52.008;5.644;2023-05-07T08:28:08;23.00;99.90
45008;DHT22;30743;52.008;5.644;2023-05-07T08:30:33;23.10;99.90
45008;DHT22;30743;52.008;5.644;2023-05-07T08:33:00;23.10;99.90
45008;DHT22;30743;52.008;5.644;2023-05-07T08:35:25;22.80;99.90
45008;DHT22;30743;52.008;5.644;2023-05-07T08:37:52;23.00;99.90
45008;DHT22;30743;52.008;5.644;2023-05-07T08:40:18;23.00;99.90
45008;DHT22;30743;52.008;5.644;2023-05-07T08:42:44;23.10;99.90
45008;DHT22;30743;52.008;5.644;2023-05-07T08:45:10;23.00;99.90
45008;DHT22;30743;52.008;5.644;2023-05-07T08:47:43;22.80;99.90
45008;DHT22;30743;52.008;5.644;2023-05-07T08:50:11;23.00;99.90
45008;DHT22;30743;52.008;5.644;2023-05-07T08:52:37;23.10;99.90
45008;DHT22;30743;52.008;5.644;2023-05-07T08:55:03;23.20;99.90
45008;DHT22;30743;52.008;5.644;2023-05-07T08:57:29;23.30;99.90
45008;DHT22;30743;52.008;5.644;2023-05-07T08:59:55;23.20;99.90
45008;DHT22;30743;52.008;5.644;2023-05-07T09:02:20;23.10;99.90
45008;DHT22;30743;52.008;5.644;2023-05-07T09:04:46;23.40;99.90
45008;DHT22;30743;52.008;5.644;2023-05-07T09:07:11;23.60;99.90
45008;DHT22;30743;52.008;5.644;2023-05-07T09:09:37;24.00;99.90
45008;DHT22;30743;52.008;5.644;2023-05-07T09:12:02;23.80;99.90
45008;DHT22;30743;52.008;5.644;2023-05-07T09:14:29;24.10;99.90
45008;DHT22;30743;52.008;5.644;2023-05-07T09:16:56;24.10;99.90
45008;DHT22;30743;52.008;5.644;2023-05-07T09:19:26;24.60;99.90
45008;DHT22;30743;52.008;5.644;2023-05-07T09:22:02;25.00;99.90
45008;DHT22;30743;52.008;5.644;2023-05-07T09:24:28;25.40;99.90
45008;DHT22;30743;52.008;5.644;2023-05-07T09:26:58;25.80;99.90
45008;DHT22;30743;52.008;5.644;2023-05-07T09:29:25;26.00;99.90
45008;DHT22;30743;52.008;5.644;2023-05-07T09:31:50;26.30;99.90
45008;DHT22;30743;52.008;5.644;2023-05-07T09:34:16;26.60;99.90
45008;DHT22;30743;52.008;5.644;2023-05-07T09:36:41;26.70;99.90
45008;DHT22;30743;52.008;5.644;2023-05-07T09:39:07;26.50;99.90
45008;DHT22;30743;52.008;5.644;2023-05-07T09:41:33;26.80;99.90
45008;DHT22;30743;52.008;5.644;2023-05-07T09:44:08;27.00;99.90
45008;DHT22;30743;52.008;5.644;2023-05-07T09:46:36;26.90;99.90
45008;DHT22;30743;52.008;5.644;2023-05-07T09:49:06;27.00;99.90
45008;DHT22;30743;52.008;5.644;2023-05-07T09:51:41;27.30;99.90
45008;DHT22;30743;52.008;5.644;2023-05-07T09:54:08;27.40;99.90
45008;DHT22;30743;52.008;5.644;2023-05-07T09:56:35;27.70;99.90
45008;DHT22;30743;52.008;5.644;2023-05-07T09:59:03;27.70;99.90
45008;DHT22;30743;52.008;5.644;2023-05-07T10:01:30;27.70;99.90
45008;DHT22;30743;52.008;5.644;2023-05-07T10:03:57;27.60;99.90
45008;DHT22;30743;52.008;5.644;2023-05-07T10:06:24;27.50;99.90
45008;DHT22;30743;52.008;5.644;2023-05-07T10:08:51;27.60;99.90
45008;DHT22;30743;52.008;5.644;2023-05-07T10:11:17;27.60;99.90
45008;DHT22;30743;52.008;5.644;2023-05-07T10:13:43;27.50;99.90
45008;DHT22;30743;52.008;5.644;2023-05-07T10:16:09;27.40;99.90
45008;DHT22;30743;52.008;5.644;2023-05-07T10:18:37;27.40;99.90
45008;DHT22;30743;52.008;5.644;2023-05-07T10:21:07;27.40;99.90
45008;DHT22;30743;52.008;5.644;2023-05-07T10:23:33;27.60;99.90
45008;DHT22;30743;52.008;5.644;2023-05-07T10:26:03;27.40;99.90
45008;DHT22;30743;52.008;5.644;2023-05-07T10:28:31;27.40;99.90
45008;DHT22;30743;52.008;5.644;2023-05-07T10:31:37;27.20;99.90
45008;DHT22;30743;52.008;5.644;2023-05-07T10:34:11;27.10;99.90
45008;DHT22;30743;52.008;5.644;2023-05-07T10:36:38;27.00;99.90
45008;DHT22;30743;52.008;5.644;2023-05-07T10:39:05;27.10;99.90
45008;DHT22;30743;52.008;5.644;2023-05-07T10:41:31;27.20;99.90
45008;DHT22;30743;52.008;5.644;2023-05-07T10:43:57;27.10;99.90
45008;DHT22;30743;52.008;5.644;2023-05-07T10:46:22;27.50;99.90
45008;DHT22;30743;52.008;5.644;2023-05-07T10:51:30;26.60;99.90
45008;DHT22;30743;52.008;5.644;2023-05-07T10:56:44;26.30;99.90
45008;DHT22;30743;52.008;5.644;2023-05-07T11:01:57;26.20;99.90
45008;DHT22;30743;52.008;5.644;2023-05-07T11:04:24;26.40;99.90
45008;DHT22;30743;52.008;5.644;2023-05-07T11:12:50;27.60;99.90
45008;DHT22;30743;52.008;5.644;2023-05-07T11:15:35;27.90;99.90
45008;DHT22;30743;52.008;5.644;2023-05-07T11:18:01;28.20;99.90
45008;DHT22;30743;52.008;5.644;2023-05-07T11:21:05;28.30;99.90
45008;DHT22;30743;52.008;5.644;2023-05-07T11:26:04;28.70;99.90
45008;DHT22;30743;52.008;5.644;2023-05-07T11:28:31;29.00;99.90
45008;DHT22;30743;52.008;5.644;2023-05-07T11:30:57;29.20;99.90
45008;DHT22;30743;52.008;5.644;2023-05-07T11:33:23;29.00;99.90
45008;DHT22;30743;52.008;5.644;2023-05-07T11:35:52;28.80;99.90
45008;DHT22;30743;52.008;5.644;2023-05-07T11:38:18;28.30;99.90
45008;DHT22;30743;52.008;5.644;2023-05-07T11:40:55;28.20;99.90
45008;DHT22;30743;52.008;5.644;2023-05-07T11:43:21;28.30;99.90
45008;DHT22;30743;52.008;5.644;2023-05-07T11:45:47;28.50;99.90
45008;DHT22;30743;52.008;5.644;2023-05-07T11:48:14;28.60;99.90
45008;DHT22;30743;52.008;5.644;2023-05-07T11:51:26;28.90;99.90
45008;DHT22;30743;52.008;5.644;2023-05-07T11:53:45;29.00;99.90
45008;DHT22;30743;52.008;5.644;2023-05-07T11:56:13;29.00;99.60
45008;DHT22;30743;52.008;5.644;2023-05-07T11:58:39;29.10;99.40
45008;DHT22;30743;52.008;5.644;2023-05-07T12:01:07;29.20;98.90
45008;DHT22;30743;52.008;5.644;2023-05-07T12:03:33;29.30;99.90
45008;DHT22;30743;52.008;5.644;2023-05-07T12:06:00;29.50;99.70
45008;DHT22;30743;52.008;5.644;2023-05-07T12:08:25;29.60;99.20
45008;DHT22;30743;52.008;5.644;2023-05-07T12:10:51;29.80;99.80
45008;DHT22;30743;52.008;5.644;2023-05-07T12:13:21;29.10;99.50
45008;DHT22;30743;52.008;5.644;2023-05-07T12:15:51;28.70;99.90
45008;DHT22;30743;52.008;5.644;2023-05-07T12:18:17;28.70;99.90
45008;DHT22;30743;52.008;5.644;2023-05-07T12:20:43;28.70;99.90
45008;DHT22;30743;52.008;5.644;2023-05-07T12:23:10;28.80;99.90
45008;DHT22;30743;52.008;5.644;2023-05-07T12:25:39;28.80;99.30
45008;DHT22;30743;52.008;5.644;2023-05-07T12:28:07;28.50;99.90
45008;DHT22;30743;52.008;5.644;2023-05-07T12:30:39;28.30;99.40
45008;DHT22;30743;52.008;5.644;2023-05-07T12:33:05;27.80;99.10
45008;DHT22;30743;52.008;5.644;2023-05-07T12:35:35;27.90;99.90
45008;DHT22;30743;52.008;5.644;2023-05-07T12:38:01;28.20;99.90
45008;DHT22;30743;52.008;5.644;2023-05-07T12:40:56;28.50;98.80
45008;DHT22;30743;52.008;5.644;2023-05-07T12:43:25;28.80;98.10
45008;DHT22;30743;52.008;5.644;2023-05-07T12:45:53;29.10;98.20
45008;DHT22;30743;52.008;5.644;2023-05-07T12:48:20;29.40;98.70
45008;DHT22;30743;52.008;5.644;2023-05-07T12:51:10;29.80;97.50
45008;DHT22;30743;52.008;5.644;2023-05-07T12:53:40;30.20;98.60
45008;DHT22;30743;52.008;5.644;2023-05-07T12:56:09;30.30;97.60
45008;DHT22;30743;52.008;5.644;2023-05-07T12:58:35;30.30;96.80
45008;DHT22;30743;52.008;5.644;2023-05-07T13:01:05;30.20;96.80
45008;DHT22;30743;52.008;5.644;2023-05-07T13:03:36;30.40;96.40
45008;DHT22;30743;52.008;5.644;2023-05-07T13:06:04;30.50;95.70
45008;DHT22;30743;52.008;5.644;2023-05-07T13:08:32;29.90;96.50
45008;DHT22;30743;52.008;5.644;2023-05-07T13:10:59;29.60;96.10
45008;DHT22;30743;52.008;5.644;2023-05-07T13:13:25;29.40;96.30
45008;DHT22;30743;52.008;5.644;2023-05-07T13:15:51;29.40;97.80
45008;DHT22;30743;52.008;5.644;2023-05-07T13:18:17;29.40;98.00
45008;DHT22;30743;52.008;5.644;2023-05-07T13:20:42;29.40;98.10
45008;DHT22;30743;52.008;5.644;2023-05-07T13:23:08;29.40;97.90
45008;DHT22;30743;52.008;5.644;2023-05-07T13:25:34;29.50;98.30
45008;DHT22;30743;52.008;5.644;2023-05-07T13:27:59;29.50;97.00
45008;DHT22;30743;52.008;5.644;2023-05-07T13:30:25;29.30;97.80
45008;DHT22;30743;52.008;5.644;2023-05-07T13:32:53;28.70;97.90
45008;DHT22;30743;52.008;5.644;2023-05-07T13:35:19;28.50;98.80
45008;DHT22;30743;52.008;5.644;2023-05-07T13:37:44;28.60;98.00
45008;DHT22;30743;52.008;5.644;2023-05-07T13:40:10;28.50;99.00
45008;DHT22;30743;52.008;5.644;2023-05-07T13:42:36;28.50;98.80
45008;DHT22;30743;52.008;5.644;2023-05-07T13:45:01;28.60;96.80
45008;DHT22;30743;52.008;5.644;2023-05-07T13:47:30;28.30;98.00
45008;DHT22;30743;52.008;5.644;2023-05-07T13:49:56;28.10;97.00
45008;DHT22;30743;52.008;5.644;2023-05-07T13:52:21;27.40;97.70
45008;DHT22;30743;52.008;5.644;2023-05-07T13:54:47;26.90;97.30
45008;DHT22;30743;52.008;5.644;2023-05-07T13:57:12;26.90;97.60
45008;DHT22;30743;52.008;5.644;2023-05-07T13:59:38;27.10;97.90
45008;DHT22;30743;52.008;5.644;2023-05-07T14:02:03;27.20;98.00
45008;DHT22;30743;52.008;5.644;2023-05-07T14:04:30;27.20;98.80
45008;DHT22;30743;52.008;5.644;2023-05-07T14:06:56;27.40;98.50
45008;DHT22;30743;52.008;5.644;2023-05-07T14:09:21;27.80;98.80
45008;DHT22;30743;52.008;5.644;2023-05-07T14:11:47;28.10;97.60
45008;DHT22;30743;52.008;5.644;2023-05-07T14:14:19;28.90;97.80
45008;DHT22;30743;52.008;5.644;2023-05-07T14:16:44;28.30;97.40
45008;DHT22;30743;52.008;5.644;2023-05-07T14:19:11;28.60;97.20
45008;DHT22;30743;52.008;5.644;2023-05-07T14:21:37;28.90;97.90
45008;DHT22;30743;52.008;5.644;2023-05-07T14:24:02;29.20;97.50
45008;DHT22;30743;52.008;5.644;2023-05-07T14:26:28;29.40;97.80
45008;DHT22;30743;52.008;5.644;2023-05-07T14:28:54;30.10;96.80
45008;DHT22;30743;52.008;5.644;2023-05-07T14:31:22;29.40;96.60
45008;DHT22;30743;52.008;5.644;2023-05-07T14:33:48;29.50;96.70
45008;DHT22;30743;52.008;5.644;2023-05-07T14:36:15;29.50;97.00
45008;DHT22;30743;52.008;5.644;2023-05-07T14:38:40;28.90;98.30
45008;DHT22;30743;52.008;5.644;2023-05-07T14:41:06;28.50;98.40
45008;DHT22;30743;52.008;5.644;2023-05-07T14:43:31;27.70;98.60
45008;DHT22;30743;52.008;5.644;2023-05-07T14:45:57;27.40;99.60
45008;DHT22;30743;52.008;5.644;2023-05-07T14:48:22;27.10;99.90
45008;DHT22;30743;52.008;5.644;2023-05-07T14:50:48;26.90;99.90
45008;DHT22;30743;52.008;5.644;2023-05-07T14:53:13;26.80;99.90
45008;DHT22;30743;52.008;5.644;2023-05-07T14:55:39;26.90;99.90
45008;DHT22;30743;52.008;5.644;2023-05-07T14:58:05;26.90;99.90
45008;DHT22;30743;52.008;5.644;2023-05-07T15:00:31;27.10;99.90
45008;DHT22;30743;52.008;5.644;2023-05-07T15:03:08;27.30;99.90
45008;DHT22;30743;52.008;5.644;2023-05-07T15:05:36;27.50;99.90
45008;DHT22;30743;52.008;5.644;2023-05-07T15:08:02;27.50;99.90
45008;DHT22;30743;52.008;5.644;2023-05-07T15:10:28;27.50;99.90
45008;DHT22;30743;52.008;5.644;2023-05-07T15:12:53;27.50;99.90
45008;DHT22;30743;52.008;5.644;2023-05-07T15:15:19;27.50;99.70
45008;DHT22;30743;52.008;5.644;2023-05-07T15:17:44;27.50;99.90
45008;DHT22;30743;52.008;5.644;2023-05-07T15:20:10;27.70;99.90
45008;DHT22;30743;52.008;5.644;2023-05-07T15:22:36;27.60;99.90
45008;DHT22;30743;52.008;5.644;2023-05-07T15:25:03;27.60;99.90
45008;DHT22;30743;52.008;5.644;2023-05-07T15:27:29;27.20;99.90
45008;DHT22;30743;52.008;5.644;2023-05-07T15:29:56;25.90;99.90
45008;DHT22;30743;52.008;5.644;2023-05-07T15:32:22;25.10;99.90
45008;DHT22;30743;52.008;5.644;2023-05-07T15:34:48;24.60;99.90
45008;DHT22;30743;52.008;5.644;2023-05-07T15:37:13;24.50;99.90
45008;DHT22;30743;52.008;5.644;2023-05-07T15:39:39;23.90;99.90
45008;DHT22;30743;52.008;5.644;2023-05-07T15:42:04;23.50;99.90
45008;DHT22;30743;52.008;5.644;2023-05-07T15:44:30;23.30;99.90